sensor_id;sensor_type;location;lat;lon;timestamp;pressure;altitude;pressure_sealevel;temperature
40045;BMP280;25735;48.122;11.422;2022-12-18T00:00:41;96240.50;;;-3.69
40045;BMP280;25735;48.122;11.422;2022-12-18T00:03:07;96242.00;;;-3.68
40045;BMP280;25735;48.122;11.422;2022-12-18T00:05:32;96236.88;;;-3.54
40045;BMP280;25735;48.122;11.422;2022-12-18T00:07:57;96218.03;;;-3.46
40045;BMP280;25735;48.122;11.422;2022-12-18T00:10:22;96220.22;;;-3.51
40045;BMP280;25735;48.122;11.422;2022-12-18T00:12:48;96220.31;;;-3.44
40045;BMP280;25735;48.122;11.422;2022-12-18T00:15:13;96239.34;;;-3.39
40045;BMP280;25735;48.122;11.422;2022-12-18T00:17:38;96233.88;;;-3.53
40045;BMP280;25735;48.122;11.422;2022-12-18T00:20:04;96242.31;;;-3.76
40045;BMP280;25735;48.122;11.422;2022-12-18T00:22:29;96241.72;;;-3.63
40045;BMP280;25735;48.122;11.422;2022-12-18T00:24:54;96245.94;;;-3.59
40045;BMP280;25735;48.122;11.422;2022-12-18T00:27:20;96248.34;;;-3.50
40045;BMP280;25735;48.122;11.422;2022-12-18T00:29:45;96257.16;;;-3.72
40045;BMP280;25735;48.122;11.422;2022-12-18T00:32:10;96256.78;;;-3.70
40045;BMP280;25735;48.122;11.422;2022-12-18T00:34:35;96258.94;;;-3.54
40045;BMP280;25735;48.122;11.422;2022-12-18T00:37:01;96256.75;;;-3.45
40045;BMP280;25735;48.122;11.422;2022-12-18T00:39:26;96245.31;;;-3.49
40045;BMP280;25735;48.122;11.422;2022-12-18T00:41:51;96248.28;;;-3.54
40045;BMP280;25735;48.122;11.422;2022-12-18T00:44:35;96258.22;;;-3.47
40045;BMP280;25735;48.122;11.422;2022-12-18T00:47:00;96262.22;;;-3.31
40045;BMP280;25735;48.122;11.422;2022-12-18T00:49:25;96267.25;;;-3.26
40045;BMP280;25735;48.122;11.422;2022-12-18T00:51:51;96259.19;;;-3.33
40045;BMP280;25735;48.122;11.422;2022-12-18T00:54:16;96266.91;;;-3.54
40045;BMP280;25735;48.122;11.422;2022-12-18T00:56:42;96268.13;;;-3.44
40045;BMP280;25735;48.122;11.422;2022-12-18T00:59:07;96275.47;;;-3.35
40045;BMP280;25735;48.122;11.422;2022-12-18T01:01:33;96272.09;;;-3.32
40045;BMP280;25735;48.122;11.422;2022-12-18T01:04:00;96288.38;;;-3.37
40045;BMP280;25735;48.122;11.422;2022-12-18T01:06:26;96298.41;;;-3.23
40045;BMP280;25735;48.122;11.422;2022-12-18T01:08:51;96296.47;;;-3.26
40045;BMP280;25735;48.122;11.422;2022-12-18T01:11:19;96296.19;;;-3.21
40045;BMP280;25735;48.122;11.422;2022-12-18T01:13:45;96304.00;;;-3.32
40045;BMP280;25735;48.122;11.422;2022-12-18T01:16:12;96293.53;;;-3.21
40045;BMP280;25735;48.122;11.422;2022-12-18T01:18:37;96306.34;;;-3.27
40045;BMP280;25735;48.122;11.422;2022-12-18T01:21:10;96309.97;;;-3.38
40045;BMP280;25735;48.122;11.422;2022-12-18T01:23:36;96307.84;;;-3.29
40045;BMP280;25735;48.122;11.422;2022-12-18T01:26:08;96308.03;;;-3.41
40045;BMP280;25735;48.122;11.422;2022-12-18T01:28:33;96304.19;;;-3.18
40045;BMP280;25735;48.122;11.422;2022-12-18T01:31:10;96311.03;;;-3.17
40045;BMP280;25735;48.122;11.422;2022-12-18T01:33:35;96317.66;;;-3.33
40045;BMP280;25735;48.122;11.422;2022-12-18T01:36:00;96323.66;;;-3.39
40045;BMP280;25735;48.122;11.422;2022-12-18T01:38:25;96317.16;;;-3.42
40045;BMP280;25735;48.122;11.422;2022-12-18T01:40:59;96324.53;;;-3.29
40045;BMP280;25735;48.122;11.422;2022-12-18T01:46:09;96321.94;;;-3.51
40045;BMP280;25735;48.122;11.422;2022-12-18T01:48:34;96320.78;;;-3.28
40045;BMP280;25735;48.122;11.422;2022-12-18T01:51:00;96325.34;;;-3.25
40045;BMP280;25735;48.122;11.422;2022-12-18T01:53:25;96328.16;;;-3.43
40045;BMP280;25735;48.122;11.422;2022-12-18T01:55:57;96334.41;;;-3.29
40045;BMP280;25735;48.122;11.422;2022-12-18T01:58:55;96317.84;;;-3.19
40045;BMP280;25735;48.122;11.422;2022-12-18T02:01:24;96327.06;;;-3.10
40045;BMP280;25735;48.122;11.422;2022-12-18T02:03:51;96320.81;;;-3.24
40045;BMP280;25735;48.122;11.422;2022-12-18T02:06:26;96321.25;;;-3.48
40045;BMP280;25735;48.122;11.422;2022-12-18T02:09:13;96318.25;;;-3.46
40045;BMP280;25735;48.122;11.422;2022-12-18T02:11:49;96315.00;;;-3.33
40045;BMP280;25735;48.122;11.422;2022-12-18T02:24:55;96306.31;;;-3.30
40045;BMP280;25735;48.122;11.422;2022-12-18T02:27:21;96308.28;;;-3.53
40045;BMP280;25735;48.122;11.422;2022-12-18T02:29:50;96315.06;;;-3.55
40045;BMP280;25735;48.122;11.422;2022-12-18T02:32:23;96313.13;;;-3.58
40045;BMP280;25735;48.122;11.422;2022-12-18T02:34:50;96312.47;;;-3.52
40045;BMP280;25735;48.122;11.422;2022-12-18T02:37:18;96318.56;;;-3.48
40045;BMP280;25735;48.122;11.422;2022-12-18T02:39:46;96308.19;;;-3.60
40045;BMP280;25735;48.122;11.422;2022-12-18T02:42:12;96307.47;;;-3.57
40045;BMP280;25735;48.122;11.422;2022-12-18T02:44:43;96310.03;;;-3.89
40045;BMP280;25735;48.122;11.422;2022-12-18T02:47:11;96313.03;;;-3.65
40045;BMP280;25735;48.122;11.422;2022-12-18T02:50:15;96312.97;;;-3.68
40045;BMP280;25735;48.122;11.422;2022-12-18T02:57:55;96317.66;;;-3.84
40045;BMP280;25735;48.122;11.422;2022-12-18T03:00:33;96318.91;;;-3.78
40045;BMP280;25735;48.122;11.422;2022-12-18T03:03:06;96317.78;;;-3.77
40045;BMP280;25735;48.122;11.422;2022-12-18T03:05:53;96319.81;;;-3.67
40045;BMP280;25735;48.122;11.422;2022-12-18T03:08:23;96309.81;;;-3.52
40045;BMP280;25735;48.122;11.422;2022-12-18T03:10:58;96307.72;;;-3.65
40045;BMP280;25735;48.122;11.422;2022-12-18T03:13:28;96296.56;;;-3.74
40045;BMP280;25735;48.122;11.422;2022-12-18T03:15:56;96294.34;;;-3.72
40045;BMP280;25735;48.122;11.422;2022-12-18T03:18:26;96294.03;;;-3.92
40045;BMP280;25735;48.122;11.422;2022-12-18T03:20:57;96300.25;;;-3.82
40045;BMP280;25735;48.122;11.422;2022-12-18T03:23:27;96309.00;;;-3.56
40045;BMP280;25735;48.122;11.422;2022-12-18T03:25:57;96308.19;;;-3.60
40045;BMP280;25735;48.122;11.422;2022-12-18T03:28:27;96314.00;;;-3.76
40045;BMP280;25735;48.122;11.422;2022-12-18T03:30:57;96308.94;;;-3.85
40045;BMP280;25735;48.122;11.422;2022-12-18T03:33:34;96308.38;;;-3.71
40045;BMP280;25735;48.122;11.422;2022-12-18T03:36:02;96320.13;;;-3.72
40045;BMP280;25735;48.122;11.422;2022-12-18T03:38:28;96323.66;;;-4.13
40045;BMP280;25735;48.122;11.422;2022-12-18T03:41:07;96322.06;;;-3.95
40045;BMP280;25735;48.122;11.422;2022-12-18T03:46:13;96322.16;;;-3.88
40045;BMP280;25735;48.122;11.422;2022-12-18T03:48:53;96326.66;;;-3.92
40045;BMP280;25735;48.122;11.422;2022-12-18T03:51:37;96313.69;;;-3.97
40045;BMP280;25735;48.122;11.422;2022-12-18T03:54:06;96320.41;;;-4.03
40045;BMP280;25735;48.122;11.422;2022-12-18T03:56:38;96319.84;;;-3.90
40045;BMP280;25735;48.122;11.422;2022-12-18T03:59:04;96318.91;;;-3.78
40045;BMP280;25735;48.122;11.422;2022-12-18T04:01:34;96308.75;;;-3.73
40045;BMP280;25735;48.122;11.422;2022-12-18T04:04:01;96313.94;;;-3.80
40045;BMP280;25735;48.122;11.422;2022-12-18T04:06:28;96319.31;;;-3.76
40045;BMP280;25735;48.122;11.422;2022-12-18T04:08:54;96329.63;;;-3.71
40045;BMP280;25735;48.122;11.422;2022-12-18T04:11:20;96317.78;;;-3.77
40045;BMP280;25735;48.122;11.422;2022-12-18T04:13:45;96328.28;;;-3.84
40045;BMP280;25735;48.122;11.422;2022-12-18T04:16:10;96330.19;;;-3.85
40045;BMP280;25735;48.122;11.422;2022-12-18T04:18:36;96335.66;;;-3.74
40045;BMP280;25735;48.122;11.422;2022-12-18T04:21:02;96336.88;;;-3.68
40045;BMP280;25735;48.122;11.422;2022-12-18T04:23:27;96329.63;;;-3.71
40045;BMP280;25735;48.122;11.422;2022-12-18T04:25:53;96323.50;;;-3.75
40045;BMP280;25735;48.122;11.422;2022-12-18T04:28:19;96330.88;;;-3.65
40045;BMP280;25735;48.122;11.422;2022-12-18T04:30:44;96329.22;;;-3.73
40045;BMP280;25735;48.122;11.422;2022-12-18T04:33:11;96326.56;;;-3.73
40045;BMP280;25735;48.122;11.422;2022-12-18T04:35:36;96326.72;;;-3.63
40045;BMP280;25735;48.122;11.422;2022-12-18T04:38:01;96328.56;;;-3.67
40045;BMP280;25735;48.122;11.422;2022-12-18T04:40:26;96332.50;;;-3.58
40045;BMP280;25735;48.122;11.422;2022-12-18T04:42:52;96325.94;;;-3.38
40045;BMP280;25735;48.122;11.422;2022-12-18T04:45:17;96333.91;;;-3.38
40045;BMP280;25735;48.122;11.422;2022-12-18T04:47:42;96342.81;;;-3.53
40045;BMP280;25735;48.122;11.422;2022-12-18T04:50:08;96347.25;;;-3.35
40045;BMP280;25735;48.122;11.422;2022-12-18T04:52:33;96342.09;;;-3.50
40045;BMP280;25735;48.122;11.422;2022-12-18T04:54:58;96346.91;;;-3.59
40045;BMP280;25735;48.122;11.422;2022-12-18T04:57:23;96354.59;;;-3.54
40045;BMP280;25735;48.122;11.422;2022-12-18T04:59:49;96357.44;;;-3.40
40045;BMP280;25735;48.122;11.422;2022-12-18T05:02:14;96362.22;;;-3.49
40045;BMP280;25735;48.122;11.422;2022-12-18T05:04:39;96359.91;;;-3.54
40045;BMP280;25735;48.122;11.422;2022-12-18T05:07:05;96348.28;;;-3.68
40045;BMP280;25735;48.122;11.422;2022-12-18T05:09:30;96350.72;;;-3.82
40045;BMP280;25735;48.122;11.422;2022-12-18T05:11:55;96362.28;;;-3.71
40045;BMP280;25735;48.122;11.422;2022-12-18T05:14:20;96367.13;;;-3.51
40045;BMP280;25735;48.122;11.422;2022-12-18T05:16:46;96360.81;;;-3.43
40045;BMP280;25735;48.122;11.422;2022-12-18T05:19:11;96359.91;;;-3.54
40045;BMP280;25735;48.122;11.422;2022-12-18T05:21:36;96362.75;;;-3.65
40045;BMP280;25735;48.122;11.422;2022-12-18T05:24:02;96362.47;;;-3.57
40045;BMP280;25735;48.122;11.422;2022-12-18T05:26:27;96354.31;;;-3.45
40045;BMP280;25735;48.122;11.422;2022-12-18T05:28:52;96375.06;;;-3.54
40045;BMP280;25735;48.122;11.422;2022-12-18T05:31:17;96363.38;;;-3.50
40045;BMP280;25735;48.122;11.422;2022-12-18T05:33:43;96374.25;;;-3.58
40045;BMP280;25735;48.122;11.422;2022-12-18T05:36:09;96370.91;;;-3.52
40045;BMP280;25735;48.122;11.422;2022-12-18T05:38:36;96385.41;;;-3.71
40045;BMP280;25735;48.122;11.422;2022-12-18T05:41:03;96379.91;;;-3.60
40045;BMP280;25735;48.122;11.422;2022-12-18T05:43:28;96377.59;;;-3.61
40045;BMP280;25735;48.122;11.422;2022-12-18T05:45:54;96376.75;;;-3.68
40045;BMP280;25735;48.122;11.422;2022-12-18T05:48:20;96383.44;;;-3.52
40045;BMP280;25735;48.122;11.422;2022-12-18T05:50:47;96378.38;;;-3.61
40045;BMP280;25735;48.122;11.422;2022-12-18T05:53:13;96371.09;;;-3.64
40045;BMP280;25735;48.122;11.422;2022-12-18T05:55:40;96388.84;;;-3.45
40045;BMP280;25735;48.122;11.422;2022-12-18T05:58:07;96387.91;;;-3.60
40045;BMP280;25735;48.122;11.422;2022-12-18T06:00:36;96388.78;;;-3.74
40045;BMP280;25735;48.122;11.422;2022-12-18T06:03:05;96388.69;;;-3.81
40045;BMP280;25735;48.122;11.422;2022-12-18T06:05:35;96392.75;;;-3.87
40045;BMP280;25735;48.122;11.422;2022-12-18T06:08:00;96400.22;;;-3.70
40045;BMP280;25735;48.122;11.422;2022-12-18T06:10:26;96385.97;;;-3.85
40045;BMP280;25735;48.122;11.422;2022-12-18T06:12:51;96390.75;;;-3.93
40045;BMP280;25735;48.122;11.422;2022-12-18T06:15:16;96390.50;;;-3.85
40045;BMP280;25735;48.122;11.422;2022-12-18T06:17:41;96377.94;;;-3.88
40045;BMP280;25735;48.122;11.422;2022-12-18T06:20:07;96387.38;;;-3.91
40045;BMP280;25735;48.122;11.422;2022-12-18T06:22:32;96399.25;;;-4.07
40045;BMP280;25735;48.122;11.422;2022-12-18T06:24:58;96410.88;;;-4.15
40045;BMP280;25735;48.122;11.422;2022-12-18T06:27:24;96404.53;;;-4.07
40045;BMP280;25735;48.122;11.422;2022-12-18T06:29:49;96399.13;;;-4.14
40045;BMP280;25735;48.122;11.422;2022-12-18T06:32:14;96411.16;;;-4.20
40045;BMP280;25735;48.122;11.422;2022-12-18T06:34:40;96406.94;;;-4.02
40045;BMP280;25735;48.122;11.422;2022-12-18T06:37:05;96414.88;;;-4.02
40045;BMP280;25735;48.122;11.422;2022-12-18T06:39:30;96429.28;;;-4.03
40045;BMP280;25735;48.122;11.422;2022-12-18T06:41:56;96415.78;;;-3.94
40045;BMP280;25735;48.122;11.422;2022-12-18T06:44:21;96421.03;;;-3.98
40045;BMP280;25735;48.122;11.422;2022-12-18T06:46:47;96423.50;;;-4.08
40045;BMP280;25735;48.122;11.422;2022-12-18T06:49:12;96425.09;;;-4.04
40045;BMP280;25735;48.122;11.422;2022-12-18T06:51:37;96427.38;;;-3.80
40045;BMP280;25735;48.122;11.422;2022-12-18T06:54:03;96437.59;;;-4.04
40045;BMP280;25735;48.122;11.422;2022-12-18T06:56:34;96429.22;;;-4.06
40045;BMP280;25735;48.122;11.422;2022-12-18T06:59:00;96427.69;;;-3.85
40045;BMP280;25735;48.122;11.422;2022-12-18T07:01:25;96441.50;;;-3.76
40045;BMP280;25735;48.122;11.422;2022-12-18T07:03:55;96438.84;;;-3.76
40045;BMP280;25735;48.122;11.422;2022-12-18T07:06:24;96448.56;;;-3.84
40045;BMP280;25735;48.122;11.422;2022-12-18T07:08:50;96439.69;;;-3.72
40045;BMP280;25735;48.122;11.422;2022-12-18T07:11:16;96451.72;;;-3.78
40045;BMP280;25735;48.122;11.422;2022-12-18T07:13:42;96451.75;;;-3.97
40045;BMP280;25735;48.122;11.422;2022-12-18T07:16:11;96449.66;;;-3.88
40045;BMP280;25735;48.122;11.422;2022-12-18T07:18:37;96456.28;;;-3.79
40045;BMP280;25735;48.122;11.422;2022-12-18T07:21:07;96461.38;;;-3.67
40045;BMP280;25735;48.122;11.422;2022-12-18T07:23:33;96469.38;;;-3.89
40045;BMP280;25735;48.122;11.422;2022-12-18T07:26:03;96471.31;;;-3.64
40045;BMP280;25735;48.122;11.422;2022-12-18T07:28:29;96459.25;;;-3.80
40045;BMP280;25735;48.122;11.422;2022-12-18T07:30:54;96462.56;;;-3.65
40045;BMP280;25735;48.122;11.422;2022-12-18T07:33:20;96465.44;;;-3.51
40045;BMP280;25735;48.122;11.422;2022-12-18T07:35:45;96463.44;;;-3.35
40045;BMP280;25735;48.122;11.422;2022-12-18T07:38:10;96450.94;;;-3.57
40045;BMP280;25735;48.122;11.422;2022-12-18T07:40:35;96449.50;;;-3.51
40045;BMP280;25735;48.122;11.422;2022-12-18T07:43:01;96438.66;;;-3.65
40045;BMP280;25735;48.122;11.422;2022-12-18T07:45:26;96450.00;;;-3.67
40045;BMP280;25735;48.122;11.422;2022-12-18T07:47:51;96453.06;;;-3.65
40045;BMP280;25735;48.122;11.422;2022-12-18T07:50:17;96457.19;;;-3.46
40045;BMP280;25735;48.122;11.422;2022-12-18T07:52:42;96461.81;;;-3.43
40045;BMP280;25735;48.122;11.422;2022-12-18T07:55:07;96458.59;;;-3.52
40045;BMP280;25735;48.122;11.422;2022-12-18T07:57:33;96468.41;;;-3.56
40045;BMP280;25735;48.122;11.422;2022-12-18T07:59:59;96470.44;;;-3.71
40045;BMP280;25735;48.122;11.422;2022-12-18T08:02:24;96476.69;;;-3.61
40045;BMP280;25735;48.122;11.422;2022-12-18T08:04:49;96475.44;;;-3.44
40045;BMP280;25735;48.122;11.422;2022-12-18T08:07:14;96469.78;;;-3.65
40045;BMP280;25735;48.122;11.422;2022-12-18T08:09:40;96473.72;;;-3.56
40045;BMP280;25735;48.122;11.422;2022-12-18T08:12:05;96484.25;;;-3.63
40045;BMP280;25735;48.122;11.422;2022-12-18T08:14:30;96486.44;;;-3.46
40045;BMP280;25735;48.122;11.422;2022-12-18T08:16:56;96480.34;;;-3.46
40045;BMP280;25735;48.122;11.422;2022-12-18T08:19:21;96493.63;;;-3.46
40045;BMP280;25735;48.122;11.422;2022-12-18T08:21:46;96503.69;;;-3.59
40045;BMP280;25735;48.122;11.422;2022-12-18T08:24:11;96499.22;;;-3.73
40045;BMP280;25735;48.122;11.422;2022-12-18T08:26:37;96485.78;;;-3.62
40045;BMP280;25735;48.122;11.422;2022-12-18T08:29:02;96495.41;;;-3.54
40045;BMP280;25735;48.122;11.422;2022-12-18T08:31:29;96498.78;;;-3.57
40045;BMP280;25735;48.122;11.422;2022-12-18T08:33:55;96495.34;;;-3.35
40045;BMP280;25735;48.122;11.422;2022-12-18T08:36:21;96481.97;;;-3.38
40045;BMP280;25735;48.122;11.422;2022-12-18T08:38:47;96491.16;;;-3.36
40045;BMP280;25735;48.122;11.422;2022-12-18T08:41:14;96493.44;;;-3.35
40045;BMP280;25735;48.122;11.422;2022-12-18T08:43:40;96498.28;;;-3.18
40045;BMP280;25735;48.122;11.422;2022-12-18T08:46:25;96497.09;;;-3.20
40045;BMP280;25735;48.122;11.422;2022-12-18T08:48:51;96507.56;;;-3.53
40045;BMP280;25735;48.122;11.422;2022-12-18T08:51:18;96505.78;;;-3.45
40045;BMP280;25735;48.122;11.422;2022-12-18T08:53:44;96507.25;;;-3.48
40045;BMP280;25735;48.122;11.422;2022-12-18T08:56:12;96490.00;;;-3.35
40045;BMP280;25735;48.122;11.422;2022-12-18T08:58:38;96493.19;;;-3.26
40045;BMP280;25735;48.122;11.422;2022-12-18T09:01:05;96505.50;;;-3.40
40045;BMP280;25735;48.122;11.422;2022-12-18T09:03:31;96508.81;;;-3.47
40045;BMP280;25735;48.122;11.422;2022-12-18T09:05:57;96505.25;;;-3.32
40045;BMP280;25735;48.122;11.422;2022-12-18T09:08:23;96500.94;;;-3.18
40045;BMP280;25735;48.122;11.422;2022-12-18T09:10:49;96510.88;;;-3.37
40045;BMP280;25735;48.122;11.422;2022-12-18T09:13:16;96515.56;;;-3.53
40045;BMP280;25735;48.122;11.422;2022-12-18T09:15:46;96512.25;;;-3.46
40045;BMP280;25735;48.122;11.422;2022-12-18T09:18:13;96507.63;;;-3.27
40045;BMP280;25735;48.122;11.422;2022-12-18T09:20:39;96508.94;;;-3.40
40045;BMP280;25735;48.122;11.422;2022-12-18T09:23:05;96516.59;;;-3.35
40045;BMP280;25735;48.122;11.422;2022-12-18T09:25:31;96517.06;;;-3.08
40045;BMP280;25735;48.122;11.422;2022-12-18T09:28:04;96492.59;;;-3.16
40045;BMP280;25735;48.122;11.422;2022-12-18T09:30:30;96513.13;;;-3.39
40045;BMP280;25735;48.122;11.422;2022-12-18T09:32:58;96504.88;;;-3.56
40045;BMP280;25735;48.122;11.422;2022-12-18T09:35:23;96494.88;;;-3.15
40045;BMP280;25735;48.122;11.422;2022-12-18T09:37:48;96500.66;;;-3.35
40045;BMP280;25735;48.122;11.422;2022-12-18T09:40:16;96515.31;;;-3.66
40045;BMP280;25735;48.122;11.422;2022-12-18T09:42:46;96498.53;;;-3.26
40045;BMP280;25735;48.122;11.422;2022-12-18T09:45:14;96485.72;;;-3.21
40045;BMP280;25735;48.122;11.422;2022-12-18T09:47:41;96504.25;;;-3.24
40045;BMP280;25735;48.122;11.422;2022-12-18T09:50:28;96489.13;;;-3.20
40045;BMP280;25735;48.122;11.422;2022-12-18T09:52:57;96500.50;;;-2.98
40045;BMP280;25735;48.122;11.422;2022-12-18T09:55:36;96494.84;;;-2.93
40045;BMP280;25735;48.122;11.422;2022-12-18T09:58:07;96497.03;;;-3.02
40045;BMP280;25735;48.122;11.422;2022-12-18T10:00:38;96494.59;;;-3.10
40045;BMP280;25735;48.122;11.422;2022-12-18T10:03:10;96487.00;;;-2.82
40045;BMP280;25735;48.122;11.422;2022-12-18T10:11:13;96481.69;;;-3.34
40045;BMP280;25735;48.122;11.422;2022-12-18T10:19:18;96468.88;;;-3.03
40045;BMP280;25735;48.122;11.422;2022-12-18T10:22:02;96472.41;;;-2.95
40045;BMP280;25735;48.122;11.422;2022-12-18T10:24:53;96466.19;;;-2.48
40045;BMP280;25735;48.122;11.422;2022-12-18T10:27:25;96460.38;;;-2.86
40045;BMP280;25735;48.122;11.422;2022-12-18T10:29:51;96458.22;;;-2.77
40045;BMP280;25735;48.122;11.422;2022-12-18T10:32:35;96457.47;;;-3.03
40045;BMP280;25735;48.122;11.422;2022-12-18T10:35:00;96456.69;;;-3.29
40045;BMP280;25735;48.122;11.422;2022-12-18T10:37:28;96452.00;;;-2.88
40045;BMP280;25735;48.122;11.422;2022-12-18T10:40:10;96447.03;;;-3.15
40045;BMP280;25735;48.122;11.422;2022-12-18T10:42:36;96451.38;;;-3.04
40045;BMP280;25735;48.122;11.422;2022-12-18T10:45:07;96458.75;;;-2.94
40045;BMP280;25735;48.122;11.422;2022-12-18T10:47:33;96458.06;;;-2.87
40045;BMP280;25735;48.122;11.422;2022-12-18T10:49:59;96454.03;;;-2.78
40045;BMP280;25735;48.122;11.422;2022-12-18T10:52:25;96445.19;;;-2.85
40045;BMP280;25735;48.122;11.422;2022-12-18T10:54:57;96444.81;;;-2.55
40045;BMP280;25735;48.122;11.422;2022-12-18T10:57:38;96447.69;;;-2.96
40045;BMP280;25735;48.122;11.422;2022-12-18T11:00:26;96452.53;;;-3.05
40045;BMP280;25735;48.122;11.422;2022-12-18T11:02:53;96467.81;;;-3.46
40045;BMP280;25735;48.122;11.422;2022-12-18T11:07:53;96464.81;;;-2.93
40045;BMP280;25735;48.122;11.422;2022-12-18T11:10:39;96466.09;;;-3.09
40045;BMP280;25735;48.122;11.422;2022-12-18T11:13:17;96478.22;;;-3.37
40045;BMP280;25735;48.122;11.422;2022-12-18T11:15:44;96483.84;;;-3.17
40045;BMP280;25735;48.122;11.422;2022-12-18T11:18:18;96476.94;;;-2.70
40045;BMP280;25735;48.122;11.422;2022-12-18T11:20:51;96464.00;;;-3.23
40045;BMP280;25735;48.122;11.422;2022-12-18T11:23:18;96479.88;;;-3.04
40045;BMP280;25735;48.122;11.422;2022-12-18T11:25:57;96460.59;;;-2.98
40045;BMP280;25735;48.122;11.422;2022-12-18T11:28:28;96466.16;;;-2.81
40045;BMP280;25735;48.122;11.422;2022-12-18T11:31:19;96461.88;;;-2.88
40045;BMP280;25735;48.122;11.422;2022-12-18T11:36:23;96455.59;;;-2.45
40045;BMP280;25735;48.122;11.422;2022-12-18T11:38:50;96451.00;;;-2.15
40045;BMP280;25735;48.122;11.422;2022-12-18T11:41:29;96445.88;;;-2.63
40045;BMP280;25735;48.122;11.422;2022-12-18T11:44:26;96449.16;;;-2.40
40045;BMP280;25735;48.122;11.422;2022-12-18T11:46:59;96442.63;;;-2.50
40045;BMP280;25735;48.122;11.422;2022-12-18T11:49:28;96448.47;;;-2.66
40045;BMP280;25735;48.122;11.422;2022-12-18T11:55:00;96442.13;;;-2.58
40045;BMP280;25735;48.122;11.422;2022-12-18T11:57:35;96427.44;;;-2.46
40045;BMP280;25735;48.122;11.422;2022-12-18T12:00:15;96432.41;;;-2.73
40045;BMP280;25735;48.122;11.422;2022-12-18T12:05:20;96432.44;;;-2.70
40045;BMP280;25735;48.122;11.422;2022-12-18T12:10:29;96439.63;;;-2.45
40045;BMP280;25735;48.122;11.422;2022-12-18T12:16:20;96431.00;;;-2.64
40045;BMP280;25735;48.122;11.422;2022-12-18T12:21:40;96426.06;;;-2.94
40045;BMP280;25735;48.122;11.422;2022-12-18T12:27:23;96424.06;;;-2.43
40045;BMP280;25735;48.122;11.422;2022-12-18T12:32:35;96426.16;;;-2.58
40045;BMP280;25735;48.122;11.422;2022-12-18T12:37:56;96417.41;;;-2.59
40045;BMP280;25735;48.122;11.422;2022-12-18T12:40:27;96415.44;;;-2.65
40045;BMP280;25735;48.122;11.422;2022-12-18T12:42:59;96418.03;;;-2.69
40045;BMP280;25735;48.122;11.422;2022-12-18T12:46:10;96414.56;;;-3.02
40045;BMP280;25735;48.122;11.422;2022-12-18T12:48:51;96416.34;;;-3.09
40045;BMP280;25735;48.122;11.422;2022-12-18T12:51:26;96416.81;;;-3.04
40045;BMP280;25735;48.122;11.422;2022-12-18T12:53:54;96408.72;;;-2.85
40045;BMP280;25735;48.122;11.422;2022-12-18T12:56:22;96432.81;;;-3.26
40045;BMP280;25735;48.122;11.422;2022-12-18T13:01:50;96427.22;;;-3.21
40045;BMP280;25735;48.122;11.422;2022-12-18T13:04:34;96423.41;;;-3.20
40045;BMP280;25735;48.122;11.422;2022-12-18T13:09:31;96417.72;;;-2.93
40045;BMP280;25735;48.122;11.422;2022-12-18T13:12:02;96425.69;;;-2.93
40045;BMP280;25735;48.122;11.422;2022-12-18T13:14:46;96434.28;;;-3.28
40045;BMP280;25735;48.122;11.422;2022-12-18T13:20:07;96435.06;;;-3.02
40045;BMP280;25735;48.122;11.422;2022-12-18T13:25:46;96428.34;;;-2.64
40045;BMP280;25735;48.122;11.422;2022-12-18T13:28:15;96422.69;;;-2.62
40045;BMP280;25735;48.122;11.422;2022-12-18T13:30:50;96430.06;;;-3.07
40045;BMP280;25735;48.122;11.422;2022-12-18T13:41:03;96425.69;;;-3.18
40045;BMP280;25735;48.122;11.422;2022-12-18T13:48:31;96419.91;;;-3.27
40045;BMP280;25735;48.122;11.422;2022-12-18T13:50:58;96417.72;;;-3.18
40045;BMP280;25735;48.122;11.422;2022-12-18T13:53:30;96421.22;;;-3.14
40045;BMP280;25735;48.122;11.422;2022-12-18T13:55:58;96421.22;;;-3.14
40045;BMP280;25735;48.122;11.422;2022-12-18T13:58:23;96405.28;;;-3.40
40045;BMP280;25735;48.122;11.422;2022-12-18T14:00:48;96404.31;;;-3.51
40045;BMP280;25735;48.122;11.422;2022-12-18T14:03:24;96419.91;;;-3.27
40045;BMP280;25735;48.122;11.422;2022-12-18T14:05:56;96408.69;;;-3.39
40045;BMP280;25735;48.122;11.422;2022-12-18T14:08:23;96427.88;;;-3.27
40045;BMP280;25735;48.122;11.422;2022-12-18T14:10:51;96422.91;;;-3.29
40045;BMP280;25735;48.122;11.422;2022-12-18T14:13:23;96419.91;;;-3.27
40045;BMP280;25735;48.122;11.422;2022-12-18T14:15:50;96428.59;;;-3.30
40045;BMP280;25735;48.122;11.422;2022-12-18T14:21:27;96438.28;;;-3.41
40045;BMP280;25735;48.122;11.422;2022-12-18T14:24:12;96435.00;;;-3.31
40045;BMP280;25735;48.122;11.422;2022-12-18T14:26:38;96429.16;;;-3.43
40045;BMP280;25735;48.122;11.422;2022-12-18T14:29:21;96439.63;;;-3.54
40045;BMP280;25735;48.122;11.422;2022-12-18T14:32:05;96435.00;;;-3.57
40045;BMP280;25735;48.122;11.422;2022-12-18T14:34:30;96430.91;;;-3.51
40045;BMP280;25735;48.122;11.422;2022-12-18T14:36:55;96431.22;;;-3.56
40045;BMP280;25735;48.122;11.422;2022-12-18T14:39:21;96420.06;;;-3.87
40045;BMP280;25735;48.122;11.422;2022-12-18T14:41:48;96427.91;;;-3.71
40045;BMP280;25735;48.122;11.422;2022-12-18T14:44:14;96418.88;;;-3.67
40045;BMP280;25735;48.122;11.422;2022-12-18T14:46:43;96423.44;;;-3.67
40045;BMP280;25735;48.122;11.422;2022-12-18T14:51:48;96434.75;;;-3.70
40045;BMP280;25735;48.122;11.422;2022-12-18T14:54:16;96431.13;;;-3.63
40045;BMP280;25735;48.122;11.422;2022-12-18T14:56:46;96431.34;;;-3.71
40045;BMP280;25735;48.122;11.422;2022-12-18T14:59:31;96421.13;;;-3.69
40045;BMP280;25735;48.122;11.422;2022-12-18T15:04:32;96431.16;;;-3.81
40045;BMP280;25735;48.122;11.422;2022-12-18T15:07:21;96442.03;;;-3.90
40045;BMP280;25735;48.122;11.422;2022-12-18T15:12:35;96445.47;;;-3.89
40045;BMP280;25735;48.122;11.422;2022-12-18T15:15:01;96434.94;;;-4.04
40045;BMP280;25735;48.122;11.422;2022-12-18T15:17:27;96440.91;;;-4.11
40045;BMP280;25735;48.122;11.422;2022-12-18T15:19:59;96423.09;;;-3.88
40045;BMP280;25735;48.122;11.422;2022-12-18T15:22:35;96431.97;;;-3.99
40045;BMP280;25735;48.122;11.422;2022-12-18T15:25:02;96430.47;;;-4.00
40045;BMP280;25735;48.122;11.422;2022-12-18T15:27:33;96431.75;;;-3.91
40045;BMP280;25735;48.122;11.422;2022-12-18T15:32:35;96441.97;;;-3.93
40045;BMP280;25735;48.122;11.422;2022-12-18T15:37:40;96449.44;;;-4.39
40045;BMP280;25735;48.122;11.422;2022-12-18T15:40:06;96439.25;;;-4.19
40045;BMP280;25735;48.122;11.422;2022-12-18T15:42:32;96436.16;;;-4.21
40045;BMP280;25735;48.122;11.422;2022-12-18T15:45:23;96433.66;;;-4.32
40045;BMP280;25735;48.122;11.422;2022-12-18T15:47:49;96428.59;;;-4.41